createdAt,value
2017-11-14T03:02:06.075Z,2.10
2017-11-14T03:04:34.863Z,2.10
2017-11-14T03:09:48.298Z,2.10
2017-11-14T03:12:16.920Z,2.10
2017-11-14T03:14:54.907Z,2.20
2017-11-14T03:17:25.561Z,2.20
2017-11-14T03:22:38.254Z,2.20
2017-11-14T03:25:07.014Z,2.30
2017-11-14T03:27:35.524Z,2.30
2017-11-14T03:30:03.749Z,2.30
2017-11-14T03:32:31.771Z,2.30
2017-11-14T03:40:19.894Z,2.30
2017-11-14T03:42:48.236Z,2.40
2017-11-14T03:45:31.263Z,2.30
2017-11-14T03:47:59.962Z,2.40
2017-11-14T03:50:28.464Z,2.40
2017-11-14T03:53:22.297Z,2.50
2017-11-14T03:55:50.991Z,2.50
2017-11-14T03:58:26.989Z,2.50
2017-11-14T04:00:55.650Z,2.50
2017-11-14T04:03:43.356Z,2.50
2017-11-14T04:06:15.173Z,2.50
2017-11-14T04:08:43.971Z,2.60
2017-11-14T04:11:12.582Z,2.60
2017-11-14T04:13:46.370Z,2.60
2017-11-14T04:16:25.494Z,2.60
2017-11-14T04:24:32.451Z,2.60
2017-11-14T04:27:01.249Z,2.60
2017-11-14T04:31:59.489Z,2.60
2017-11-14T04:37:17.914Z,2.50
2017-11-14T04:39:46.664Z,2.50
2017-11-14T04:42:15.266Z,2.50
2017-11-14T04:44:43.865Z,2.50
2017-11-14T04:47:12.512Z,2.50
2017-11-14T04:49:41.146Z,2.40
2017-11-14T04:52:13.589Z,2.40
2017-11-14T04:54:42.295Z,2.40
2017-11-14T04:57:10.903Z,2.40
2017-11-14T04:59:39.192Z,2.40
2017-11-14T05:02:07.786Z,2.50
2017-11-14T05:04:40.354Z,2.50
2017-11-14T05:07:13.244Z,2.50
2017-11-14T05:09:42.033Z,2.50
2017-11-14T05:12:26.465Z,2.50
2017-11-14T05:14:55.128Z,2.50
2017-11-14T05:19:58.078Z,2.50
2017-11-14T05:25:13.614Z,2.40
2017-11-14T05:27:53.501Z,2.40
2017-11-14T05:31:09.513Z,2.40
2017-11-14T05:33:38.154Z,2.40
2017-11-14T05:41:38.322Z,2.40
2017-11-14T05:44:23.427Z,2.40
2017-11-14T05:46:55.768Z,2.30
2017-11-14T05:49:24.469Z,2.30
2017-11-14T05:51:54.266Z,2.20
2017-11-14T05:54:43.113Z,2.20
2017-11-14T05:57:34.779Z,2.20
2017-11-14T06:00:03.364Z,2.10
2017-11-14T06:02:32.486Z,2.10
2017-11-14T06:05:01.829Z,2.10
2017-11-14T06:07:30.601Z,2.10
2017-11-14T06:15:28.941Z,2.20
2017-11-14T06:18:07.132Z,2.20
2017-11-14T06:20:37.533Z,2.30
2017-11-14T06:23:06.307Z,2.30
2017-11-14T06:25:34.869Z,2.30
2017-11-14T06:28:03.389Z,2.40
2017-11-14T06:30:32.021Z,2.40
2017-11-14T06:38:54.222Z,2.50
2017-11-14T06:41:22.715Z,2.60
2017-11-14T06:43:52.616Z,2.60
2017-11-14T06:46:24.892Z,2.60
2017-11-14T06:49:09.197Z,2.70
2017-11-14T06:51:38.675Z,2.70
2017-11-14T06:54:07.183Z,2.70
2017-11-14T06:56:43.587Z,2.70
2017-11-14T07:02:07.265Z,2.70
2017-11-14T07:04:35.982Z,2.70
2017-11-14T07:07:04.520Z,2.80
2017-11-14T07:09:34.821Z,2.80
2017-11-14T07:12:03.508Z,2.80
2017-11-14T07:14:32.044Z,2.90
2017-11-14T07:17:00.523Z,2.90
2017-11-14T07:19:29.274Z,2.90
2017-11-14T07:21:58.567Z,2.90
2017-11-14T07:24:26.728Z,2.90
2017-11-14T07:26:57.213Z,2.90
2017-11-14T07:29:26.617Z,3.00
2017-11-14T07:31:55.556Z,3.00
2017-11-14T07:34:25.093Z,3.00
2017-11-14T07:36:53.919Z,3.00
2017-11-14T07:39:23.528Z,3.00
2017-11-14T07:41:52.063Z,3.00
2017-11-14T07:44:20.598Z,3.00
2017-11-14T07:46:49.321Z,3.00
2017-11-14T07:49:18.030Z,3.10
2017-11-14T07:51:46.534Z,3.10
2017-11-14T07:54:15.078Z,3.20
2017-11-14T07:56:43.643Z,3.30
2017-11-14T07:59:12.283Z,3.40
2017-11-14T08:01:40.805Z,3.40
2017-11-14T08:04:09.499Z,3.50
2017-11-14T08:06:37.964Z,3.70
2017-11-14T08:09:06.170Z,3.80
2017-11-14T08:11:35.066Z,3.90
2017-11-14T08:14:03.769Z,4.00
2017-11-14T08:16:32.384Z,4.10
2017-11-14T08:19:00.908Z,4.20
2017-11-14T08:21:29.567Z,4.20
2017-11-14T08:23:58.193Z,4.30
2017-11-14T08:26:26.881Z,4.30
2017-11-14T08:28:55.315Z,4.40
2017-11-14T08:31:23.693Z,4.40
2017-11-14T08:33:52.074Z,4.50
2017-11-14T08:36:20.435Z,4.60
2017-11-14T08:38:48.829Z,4.70
2017-11-14T08:41:17.207Z,4.80
2017-11-14T08:43:45.591Z,4.90
2017-11-14T08:46:13.974Z,5.10
2017-11-14T08:48:42.365Z,5.20
2017-11-14T08:51:10.730Z,5.30
2017-11-14T08:53:39.105Z,5.40
2017-11-14T08:56:07.486Z,5.50
2017-11-14T08:58:35.513Z,5.50
2017-11-14T09:01:04.650Z,5.50
2017-11-14T09:03:33.018Z,5.50
2017-11-14T09:06:01.220Z,5.50
2017-11-14T09:08:29.303Z,5.40
2017-11-14T09:10:58.483Z,5.40
2017-11-14T09:13:26.565Z,5.40
2017-11-14T09:15:54.059Z,5.40
2017-11-14T09:18:22.105Z,5.50
2017-11-14T09:20:50.882Z,5.60
2017-11-14T09:23:18.919Z,5.60
2017-11-14T09:25:46.935Z,5.80
2017-11-14T09:28:15.730Z,6.00
2017-11-14T09:30:49.018Z,5.90
2017-11-14T09:33:17.479Z,6.00
2017-11-14T09:35:45.851Z,6.00
2017-11-14T09:38:13.557Z,6.20
2017-11-14T09:40:41.310Z,6.20
2017-11-14T09:43:09.784Z,6.20
2017-11-14T09:45:37.707Z,6.20
2017-11-14T09:48:05.409Z,6.20
2017-11-14T09:50:33.116Z,6.30
2017-11-14T09:53:01.160Z,6.40
2017-11-14T09:55:29.971Z,6.90
2017-11-14T09:57:57.648Z,6.90
2017-11-14T10:00:25.171Z,7.30
2017-11-14T10:02:53.198Z,7.50
2017-11-14T10:05:21.238Z,7.40
2017-11-14T10:07:49.254Z,7.50
2017-11-14T10:10:16.932Z,7.50
2017-11-14T10:12:45.741Z,7.40
2017-11-14T10:15:14.026Z,7.40
2017-11-14T10:17:42.053Z,7.40
2017-11-14T10:20:10.499Z,7.20
2017-11-14T10:22:38.522Z,7.10
2017-11-14T10:25:06.973Z,7.20
2017-11-14T10:27:35.012Z,7.20
2017-11-14T10:30:02.689Z,7.20
2017-11-14T10:32:30.378Z,7.30
2017-11-14T10:34:58.051Z,7.40
2017-11-14T10:37:26.496Z,7.60
2017-11-14T10:39:54.543Z,7.60
2017-11-14T10:42:22.215Z,7.70
2017-11-14T10:44:50.230Z,7.40
2017-11-14T10:47:18.674Z,7.50
2017-11-14T10:49:46.370Z,7.50
2017-11-14T10:52:15.164Z,7.50
2017-11-14T10:54:43.628Z,7.60
2017-11-14T10:57:11.914Z,7.60
2017-11-14T10:59:40.369Z,7.60
2017-11-14T11:02:08.051Z,7.60
2017-11-14T11:04:36.840Z,7.70
2017-11-14T11:07:05.294Z,7.90
2017-11-14T11:09:32.979Z,7.90
2017-11-14T11:12:01.434Z,8.00
2017-11-14T11:14:29.454Z,7.90
2017-11-14T11:16:57.162Z,8.10
2017-11-14T11:19:24.854Z,8.30
2017-11-14T11:21:53.299Z,8.30
2017-11-14T11:24:20.989Z,8.30
2017-11-14T11:26:48.662Z,7.90
2017-11-14T11:29:17.139Z,7.50
2017-11-14T11:31:45.573Z,7.60
2017-11-14T11:34:13.611Z,7.60
2017-11-14T11:36:41.301Z,8.10
2017-11-14T11:39:08.996Z,8.60
2017-11-14T11:41:36.924Z,9.00
2017-11-14T11:44:04.642Z,9.10
2017-11-14T11:46:33.442Z,9.00
2017-11-14T11:49:01.890Z,8.70
2017-11-14T11:51:29.583Z,8.70
2017-11-14T11:53:58.026Z,8.60
2017-11-14T11:56:27.682Z,8.60
2017-11-14T11:58:55.698Z,8.60
2017-11-14T12:01:23.718Z,8.60
2017-11-14T12:03:51.743Z,8.70
2017-11-14T12:06:19.706Z,8.50
2017-11-14T12:08:47.390Z,8.40
2017-11-14T12:11:15.389Z,8.50
2017-11-14T12:13:43.079Z,8.80
2017-11-14T12:16:10.767Z,8.50
2017-11-14T12:18:38.462Z,8.60
2017-11-14T12:21:06.535Z,8.30
2017-11-14T12:23:35.007Z,8.40
2017-11-14T12:26:03.446Z,8.50
2017-11-14T12:28:31.476Z,8.50
2017-11-14T12:30:59.488Z,8.40
2017-11-14T12:33:27.176Z,8.30
2017-11-14T12:35:54.882Z,8.10
2017-11-14T12:38:23.217Z,8.20
2017-11-14T12:40:52.043Z,8.50
2017-11-14T12:43:20.378Z,8.50
2017-11-14T12:45:48.775Z,8.50
2017-11-14T12:48:17.235Z,8.30
2017-11-14T12:50:45.251Z,8.30
2017-11-14T12:53:13.651Z,8.30
2017-11-14T12:55:41.681Z,8.30
2017-11-14T12:58:10.273Z,8.30
2017-11-14T13:00:38.026Z,8.30
2017-11-14T13:03:06.395Z,8.30
2017-11-14T13:05:35.375Z,7.80
2017-11-14T13:08:03.731Z,7.80
2017-11-14T13:10:32.266Z,7.70
2017-11-14T13:13:00.623Z,8.10
2017-11-14T13:15:29.722Z,8.00
2017-11-14T13:17:58.855Z,8.20
2017-11-14T13:20:27.236Z,8.20
2017-11-14T13:22:55.799Z,8.20
2017-11-14T13:25:24.153Z,8.30
2017-11-14T13:27:52.699Z,8.40
2017-11-14T13:30:21.042Z,8.40
2017-11-14T13:32:49.078Z,8.30
2017-11-14T13:35:18.256Z,8.30
2017-11-14T13:37:46.618Z,8.30
2017-11-14T13:40:14.971Z,8.30
2017-11-14T13:42:43.352Z,8.30
2017-11-14T13:45:11.736Z,8.20
2017-11-14T13:47:40.086Z,8.30
2017-11-14T13:50:08.453Z,8.20
2017-11-14T13:52:37.554Z,8.30
2017-11-14T13:55:05.735Z,8.30
2017-11-14T13:57:34.076Z,8.40
2017-11-14T14:00:02.407Z,8.50
2017-11-14T14:02:30.763Z,8.60
2017-11-14T14:04:59.101Z,8.80
2017-11-14T14:07:27.450Z,9.00
2017-11-14T14:09:55.782Z,9.10
2017-11-14T14:12:24.921Z,9.60
2017-11-14T14:14:53.267Z,9.50
2017-11-14T14:17:21.622Z,9.70
2017-11-14T14:19:50.718Z,9.80
2017-11-14T14:22:19.841Z,9.50
2017-11-14T14:24:48.189Z,9.50
2017-11-14T14:27:17.290Z,9.60
2017-11-14T14:29:46.482Z,9.50
2017-11-14T14:32:15.600Z,9.40
2017-11-14T14:34:43.946Z,9.40
2017-11-14T14:37:13.066Z,9.30
2017-11-14T14:39:41.419Z,9.30
2017-11-14T14:42:10.571Z,9.10
2017-11-14T14:44:38.998Z,9.10
2017-11-14T14:47:08.113Z,8.80
2017-11-14T14:49:36.466Z,8.70
2017-11-14T14:52:04.800Z,8.70
2017-11-14T14:54:33.175Z,8.70
2017-11-14T14:57:01.793Z,8.50
2017-11-14T14:59:30.185Z,8.50
2017-11-14T15:01:58.534Z,8.50
2017-11-14T15:04:26.934Z,8.40
2017-11-14T15:06:55.422Z,8.30
2017-11-14T15:09:24.066Z,8.20
2017-11-14T15:11:52.663Z,8.20
2017-11-14T15:14:21.114Z,8.10
2017-11-14T15:16:49.462Z,8.10
2017-11-14T15:19:18.566Z,7.90
2017-11-14T15:21:46.713Z,7.90
2017-11-14T15:24:15.835Z,7.90
2017-11-14T15:26:44.187Z,7.90
2017-11-14T15:29:12.408Z,7.80
2017-11-14T15:31:40.766Z,7.80
2017-11-14T15:34:09.162Z,7.80
2017-11-14T15:36:37.499Z,7.80
2017-11-14T15:39:06.618Z,7.70
2017-11-14T15:41:34.962Z,7.60
2017-11-14T15:44:03.324Z,7.70
2017-11-14T15:46:31.921Z,7.70
2017-11-14T15:49:00.258Z,7.70
2017-11-14T15:51:28.639Z,7.70
2017-11-14T15:53:56.979Z,7.70
2017-11-14T15:56:26.098Z,7.70
2017-11-14T15:58:54.479Z,7.70
2017-11-14T16:01:22.826Z,7.70
2017-11-14T16:03:51.208Z,7.60
2017-11-14T16:06:20.344Z,7.70
2017-11-14T16:08:48.695Z,7.70
2017-11-14T16:11:17.051Z,7.70
2017-11-14T16:13:46.173Z,7.60
2017-11-14T16:16:14.542Z,7.60
2017-11-14T16:18:42.895Z,7.50
2017-11-14T16:21:12.012Z,7.60
2017-11-14T16:23:40.373Z,7.50
2017-11-14T16:26:09.697Z,7.50
2017-11-14T16:28:38.118Z,7.50
2017-11-14T16:31:06.482Z,7.40
2017-11-14T16:33:34.900Z,7.50
2017-11-14T16:36:04.055Z,7.40
2017-11-14T16:38:32.663Z,7.40
2017-11-14T16:41:00.702Z,7.40
2017-11-14T16:43:29.045Z,7.40
2017-11-14T16:45:58.167Z,7.40
2017-11-14T16:48:26.511Z,7.40
2017-11-14T16:50:55.633Z,7.40
2017-11-14T16:53:23.987Z,7.40
2017-11-14T16:55:52.360Z,7.40
2017-11-14T16:58:21.458Z,7.40
2017-11-14T17:00:49.921Z,7.40
2017-11-14T17:03:18.263Z,7.40
2017-11-14T17:05:46.623Z,7.40
2017-11-14T17:08:14.971Z,7.50
2017-11-14T17:10:44.096Z,7.40
2017-11-14T17:13:16.611Z,7.40
2017-11-14T17:15:45.014Z,7.40
2017-11-14T17:18:14.130Z,7.50
2017-11-14T17:20:42.462Z,7.40
2017-11-14T17:23:10.820Z,7.50
2017-11-14T17:25:39.175Z,7.40
2017-11-14T17:28:07.531Z,7.40
2017-11-14T17:30:35.909Z,7.40
2017-11-14T17:33:04.290Z,7.30
2017-11-14T17:35:32.658Z,7.30
2017-11-14T17:38:01.776Z,7.30
2017-11-14T17:40:30.129Z,7.30
2017-11-14T17:42:59.251Z,7.40
2017-11-14T17:45:27.794Z,7.40
2017-11-14T17:47:56.907Z,7.40
2017-11-14T17:50:26.035Z,7.40
2017-11-14T17:52:54.391Z,7.40
2017-11-14T17:55:22.749Z,7.30
2017-11-14T17:57:51.857Z,7.20
2017-11-14T18:00:20.217Z,7.20
2017-11-14T18:02:49.322Z,7.30
2017-11-14T18:05:17.686Z,7.30
2017-11-14T18:07:46.037Z,7.30
2017-11-14T18:10:14.195Z,7.30
2017-11-14T18:12:42.552Z,7.30
2017-11-14T18:15:11.662Z,7.30
2017-11-14T18:17:40.027Z,7.20
2017-11-14T18:20:08.386Z,7.30
2017-11-14T18:22:36.731Z,7.20
2017-11-14T18:25:05.067Z,7.20
2017-11-14T18:27:33.426Z,7.20
2017-11-14T18:30:01.767Z,7.20
2017-11-14T18:32:30.313Z,7.20
2017-11-14T18:34:58.721Z,7.20
2017-11-14T18:37:27.066Z,7.20
2017-11-14T18:39:55.450Z,7.20
2017-11-14T18:42:23.805Z,7.20
2017-11-14T18:44:52.203Z,7.30
2017-11-14T18:47:20.543Z,7.30
2017-11-14T18:49:48.896Z,7.20
2017-11-14T18:52:17.229Z,7.20
2017-11-14T18:54:45.598Z,7.20
2017-11-14T18:57:13.934Z,7.20
2017-11-14T18:59:43.061Z,7.20
2017-11-14T19:02:11.409Z,7.20
2017-11-14T19:04:40.572Z,7.20
2017-11-14T19:07:09.080Z,7.20
2017-11-14T19:09:38.918Z,7.20
2017-11-14T19:12:07.329Z,7.20
2017-11-14T19:14:35.702Z,7.20
2017-11-14T19:17:04.059Z,7.10
2017-11-14T19:19:32.408Z,7.10
2017-11-14T19:22:01.520Z,7.10
2017-11-14T19:24:29.873Z,7.10
2017-11-14T19:26:58.222Z,7.10
2017-11-14T19:29:26.595Z,7.10
2017-11-14T19:31:55.006Z,7.10
2017-11-14T19:34:23.560Z,7.20
2017-11-14T19:36:51.914Z,7.20
2017-11-14T19:39:20.306Z,7.20
2017-11-14T19:41:48.658Z,7.10
2017-11-14T19:44:17.114Z,7.10
2017-11-14T19:46:46.234Z,7.10
2017-11-14T19:49:14.639Z,7.10
2017-11-14T19:51:43.092Z,7.10
2017-11-14T19:54:11.462Z,7.10
2017-11-14T19:56:39.826Z,7.10
2017-11-14T19:59:08.197Z,7.10
2017-11-14T20:01:37.337Z,7.10
2017-11-14T20:04:05.881Z,7.10
2017-11-14T20:06:34.243Z,7.10
2017-11-14T20:09:03.034Z,7.10
2017-11-14T20:11:32.157Z,7.10
2017-11-14T20:14:00.510Z,7.10
2017-11-14T20:16:29.665Z,7.10
2017-11-14T20:18:58.037Z,7.10
2017-11-14T20:21:25.749Z,7.10
2017-11-14T20:23:54.881Z,7.10
2017-11-14T20:26:23.261Z,7.10
2017-11-14T20:28:51.668Z,7.00
2017-11-14T20:31:20.205Z,7.10
2017-11-14T20:33:47.901Z,7.10
2017-11-14T20:36:16.282Z,7.10
2017-11-14T20:38:44.655Z,7.00
2017-11-14T20:41:13.101Z,7.00
2017-11-14T20:43:41.496Z,7.10
2017-11-14T20:46:09.911Z,7.10
2017-11-14T20:48:38.261Z,7.10
2017-11-14T20:51:06.677Z,7.10
2017-11-14T20:53:35.033Z,7.10
2017-11-14T20:56:03.466Z,7.00
2017-11-14T20:58:31.824Z,6.90
2017-11-14T21:01:00.197Z,6.90
2017-11-14T21:03:28.350Z,6.90
2017-11-14T21:05:56.733Z,6.90
2017-11-14T21:08:25.109Z,6.80
2017-11-14T21:10:53.272Z,6.70
2017-11-14T21:13:21.641Z,6.70
2017-11-14T21:15:50.942Z,6.60
2017-11-14T21:18:19.318Z,6.50
2017-11-14T21:20:47.744Z,6.40
2017-11-14T21:23:15.947Z,6.40
2017-11-14T21:25:44.321Z,6.50
2017-11-14T21:28:12.670Z,6.40
2017-11-14T21:30:41.619Z,6.30
2017-11-14T21:33:09.968Z,6.30
2017-11-14T21:35:38.339Z,6.30
2017-11-14T21:38:06.712Z,6.30
2017-11-14T21:40:35.835Z,6.30
2017-11-14T21:43:03.858Z,6.30
2017-11-14T21:45:32.241Z,6.30
2017-11-14T21:48:01.372Z,6.30
2017-11-14T21:50:29.773Z,6.30
2017-11-14T21:52:58.321Z,6.30
2017-11-14T21:55:26.663Z,6.30
2017-11-14T21:57:55.036Z,6.30
2017-11-14T22:00:23.386Z,6.30
2017-11-14T22:02:51.730Z,6.30
2017-11-14T22:05:20.095Z,6.30
2017-11-14T22:07:48.495Z,6.20
2017-11-14T22:10:16.827Z,6.30
2017-11-14T22:12:45.971Z,6.30
2017-11-14T22:15:14.334Z,6.30
2017-11-14T22:17:42.695Z,6.30
2017-11-14T22:20:11.808Z,6.20
2017-11-14T22:22:40.161Z,6.20
2017-11-14T22:25:09.282Z,6.30
2017-11-14T22:27:37.631Z,6.30
2017-11-14T22:30:05.998Z,6.30
2017-11-14T22:32:35.131Z,6.30
2017-11-14T22:35:03.491Z,6.20
2017-11-14T22:37:32.594Z,6.30
2017-11-14T22:40:01.707Z,6.20
2017-11-14T22:42:30.067Z,6.20
2017-11-14T22:44:59.175Z,6.30
2017-11-14T22:47:27.529Z,6.30
2017-11-14T22:49:56.637Z,6.30
2017-11-14T22:52:25.041Z,6.30
2017-11-14T22:54:53.381Z,6.30
2017-11-14T22:57:22.503Z,6.30
2017-11-14T22:59:50.846Z,6.30
2017-11-14T23:02:19.964Z,6.40
2017-11-14T23:04:48.142Z,6.40
2017-11-14T23:07:16.306Z,6.40
2017-11-14T23:09:45.423Z,6.40
2017-11-14T23:12:13.771Z,6.30
2017-11-14T23:14:42.890Z,6.40
2017-11-14T23:17:11.235Z,6.40
2017-11-14T23:19:40.354Z,6.40
2017-11-14T23:22:08.695Z,6.40
2017-11-14T23:24:36.910Z,6.40
2017-11-14T23:27:05.298Z,6.40
2017-11-14T23:29:33.630Z,6.40
2017-11-14T23:32:01.994Z,6.40
2017-11-14T23:34:30.338Z,6.40
2017-11-14T23:36:58.694Z,6.30
2017-11-14T23:39:27.038Z,6.30
2017-11-14T23:41:55.398Z,6.30
2017-11-14T23:44:23.738Z,6.30
2017-11-14T23:46:52.106Z,6.40
2017-11-14T23:49:20.473Z,6.40
2017-11-14T23:51:49.581Z,6.40
2017-11-14T23:54:17.957Z,6.40
2017-11-14T23:56:46.302Z,6.40
2017-11-14T23:59:14.664Z,6.40
